Time;durP1;ratioP1;P1;durP2;ratioP2;P2;SDS_P1;SDS_P2;PMS_P1;PMS_P2;Temp;Humidity;BMP_temperature;BMP_pressure;BME280_temperature;BME280_humidity;BME280_pressure;Samples;Min_cycle;Max_cycle;Signal;HPM_P1;HPM_P2
2022/03/21 08:25:37;;;;;;;16.15;7.55;;;;;;;7.17;50.81;100577.97;5126283;27;20364;-81
2022/03/21 08:28:04;;;;;;;26.15;8.18;;;;;;;7.38;51.51;100577.16;5108396;28;20044;-81
2022/03/21 08:30:33;;;;;;;16.25;7.47;;;;;;;7.55;49.77;100578.41;5108709;27;20051;-81
2022/03/21 08:32:59;;;;;;;18.02;7.93;;;;;;;7.72;50.16;100566.13;5122269;27;20067;-81
2022/03/21 08:35:26;;;;;;;14.27;8.23;;;;;;;8.01;49.93;100571.75;5107572;28;20048;-81
2022/03/21 08:37:53;;;;;;;13.07;7.78;;;;;;;8.10;51.03;100564.66;5108925;28;20052;-81
2022/03/21 08:40:19;;;;;;;16.45;7.55;;;;;;;8.21;49.51;100571.84;5111908;28;20402;-81
2022/03/21 08:42:47;;;;;;;14.00;7.65;;;;;;;8.11;49.00;100574.50;5091165;28;20109;-81
2022/03/21 08:45:15;;;;;;;14.95;8.20;;;;;;;8.19;48.67;100576.53;5084444;28;20048;-81
2022/03/21 08:47:42;;;;;;;20.30;7.97;;;;;;;8.21;48.10;100561.88;5081135;28;20044;-81
2022/03/21 08:50:10;;;;;;;19.88;8.15;;;;;;;8.45;49.99;100574.28;5087484;28;20403;-81
2022/03/21 08:52:36;;;;;;;13.63;7.18;;;;;;;8.46;48.79;100566.00;5086962;28;20052;-81
2022/03/21 08:55:04;;;;;;;15.57;7.60;;;;;;;8.49;47.79;100549.47;5074391;28;20093;-81
2022/03/21 08:57:31;;;;;;;12.63;7.35;;;;;;;8.60;48.78;100558.50;5083673;28;20063;-81
2022/03/21 08:59:59;;;;;;;14.07;7.53;;;;;;;8.76;47.71;100560.66;5087127;28;20075;-81
2022/03/21 09:02:26;;;;;;;12.50;7.65;;;;;;;8.84;47.11;100568.97;5086691;28;20045;-81
2022/03/21 09:04:53;;;;;;;17.27;7.82;;;;;;;8.90;49.28;100553.97;5086913;28;20462;-81
2022/03/21 09:07:19;;;;;;;17.30;8.70;;;;;;;8.94;47.82;100553.56;5083939;28;20074;-81
2022/03/21 09:09:46;;;;;;;17.50;8.73;;;;;;;8.91;46.62;100550.28;5082301;28;20050;-81
2022/03/21 09:12:12;;;;;;;21.73;8.27;;;;;;;9.06;46.76;100561.56;5086083;28;20040;-81
2022/03/21 09:14:39;;;;;;;25.17;8.52;;;;;;;9.11;46.17;100546.59;5085920;28;20051;-81
2022/03/21 09:17:08;;;;;;;26.15;8.27;;;;;;;9.26;47.10;100552.47;5085321;28;20574;-81
2022/03/21 09:19:35;;;;;;;15.45;8.35;;;;;;;9.24;45.30;100548.16;5084572;28;20106;-81
2022/03/21 09:22:01;;;;;;;15.30;8.27;;;;;;;9.42;48.02;100559.16;5086302;28;20060;-81
2022/03/21 09:24:28;;;;;;;13.60;9.15;;;;;;;9.51;45.48;100547.44;5092609;28;20044;-81
2022/03/21 09:26:55;;;;;;;14.65;8.68;;;;;;;9.59;44.95;100557.56;5107708;28;20065;-81
2022/03/21 09:29:22;;;;;;;15.85;8.00;;;;;;;9.49;44.63;100549.44;5085159;28;20052;-81
2022/03/21 09:31:50;;;;;;;15.05;8.20;;;;;;;9.42;44.47;100557.28;5087207;28;20041;-81
2022/03/21 09:34:19;;;;;;;21.10;8.50;;;;;;;9.51;45.86;100558.31;5079376;28;20448;-81
2022/03/21 09:36:46;;;;;;;16.05;7.97;;;;;;;9.56;45.23;100547.88;5073481;28;20427;-81
2022/03/21 09:39:14;;;;;;;18.45;9.23;;;;;;;9.77;45.79;100553.16;5072447;28;20392;-81
2022/03/21 09:41:41;;;;;;;17.17;9.02;;;;;;;9.86;45.13;100533.25;5073609;28;20067;-81
2022/03/21 09:44:09;;;;;;;13.77;8.05;;;;;;;9.98;44.23;100547.53;5079422;28;20102;-81
2022/03/21 09:46:37;;;;;;;17.13;9.30;;;;;;;10.16;44.91;100539.44;5093601;28;20075;-81
2022/03/21 09:49:05;;;;;;;20.67;9.43;;;;;;;10.33;44.07;100542.38;5080321;28;20055;-81
2022/03/21 09:51:33;;;;;;;15.80;8.15;;;;;;;10.32;44.43;100532.53;5073162;28;20154;-81
2022/03/21 09:54:01;;;;;;;15.68;9.07;;;;;;;10.40;42.99;100546.22;5074614;28;20048;-81
2022/03/21 09:56:29;;;;;;;16.30;8.43;;;;;;;10.49;44.72;100541.75;5093409;28;20048;-81
2022/03/21 09:58:59;;;;;;;20.52;9.65;;;;;;;10.54;44.66;100517.72;5077302;28;20056;-81
2022/03/21 10:01:26;;;;;;;19.73;9.13;;;;;;;10.62;43.05;100537.69;5071097;28;20076;-81
2022/03/21 10:03:53;;;;;;;16.58;8.45;;;;;;;10.62;42.47;100526.78;5071854;28;20098;-81
2022/03/21 10:06:28;;;;;;;16.90;9.10;;;;;;;10.77;43.74;100526.28;5068505;28;20057;-81
2022/03/21 10:09:06;;;;;;;17.55;8.93;;;;;;;10.67;42.40;100518.19;5060774;28;20078;-81
2022/03/21 10:11:34;;;;;;;16.98;8.88;;;;;;;10.79;42.93;100524.25;5071796;28;20044;-81
2022/03/21 10:14:21;;;;;;;16.42;8.90;;;;;;;11.07;43.44;100519.63;5069882;28;20082;-81
2022/03/21 10:16:51;;;;;;;21.30;9.48;;;;;;;10.93;40.83;100528.31;5071394;28;20147;-81
2022/03/21 10:19:17;;;;;;;;;;;;;;;10.83;41.04;100524.84;5072881;28;20049;-80
2022/03/21 10:22:00;;;;;;;14.60;9.23;;;;;;;10.88;42.07;100525.22;5071060;28;19990;-80
2022/03/21 10:24:34;;;;;;;16.38;9.57;;;;;;;11.13;42.25;100518.16;5071775;28;20048;-80
2022/03/21 10:27:01;;;;;;;20.85;8.95;;;;;;;11.11;41.21;100507.44;5061611;28;20400;-80
2022/03/21 10:29:27;;;;;;;16.90;8.18;;;;;;;11.41;41.88;100505.31;5052293;28;20049;-79
2022/03/21 10:31:54;;;;;;;20.08;9.02;;;;;;;11.66;44.01;100509.06;5075647;28;20052;-80
2022/03/21 10:34:23;;;;;;;18.88;9.43;;;;;;;11.81;41.06;100520.25;5070407;28;20515;-81
2022/03/21 10:37:00;;;;;;;19.70;9.93;;;;;;;11.70;40.31;100501.44;5063466;28;20507;-80
2022/03/21 10:39:30;;;;;;;23.40;8.63;;;;;;;11.79;41.58;100511.38;5059138;28;20048;-80
2022/03/21 10:41:58;;;;;;;19.38;9.63;;;;;;;11.91;39.98;100513.81;5065280;28;20056;-80
2022/03/21 10:44:25;;;;;;;17.00;9.20;;;;;;;11.76;39.33;100510.88;5071305;28;20442;-80
2022/03/21 10:46:53;;;;;;;19.55;9.45;;;;;;;11.53;40.08;100495.00;5063674;28;20048;-80
2022/03/21 10:49:29;;;;;;;15.10;8.73;;;;;;;11.81;40.80;100503.06;5055657;28;20466;-81
2022/03/21 10:51:56;;;;;;;16.35;8.70;;;;;;;12.12;42.42;100510.75;5070565;28;20063;-80
2022/03/21 10:54:41;;;;;;;16.05;9.05;;;;;;;12.06;40.23;100505.94;5066529;28;20061;-80
2022/03/21 10:57:26;;;;;;;16.58;9.38;;;;;;;12.10;41.52;100502.72;5073714;28;20052;-80
2022/03/21 10:59:53;;;;;;;18.77;9.13;;;;;;;12.28;41.83;100515.44;5065706;28;20079;-81
2022/03/21 11:02:19;;;;;;;20.92;10.05;;;;;;;12.43;40.63;100519.25;5070508;28;20052;-80
2022/03/21 11:04:46;;;;;;;16.75;10.00;;;;;;;12.50;39.45;100501.22;5080047;28;20100;-80
2022/03/21 11:07:14;;;;;;;19.00;9.68;;;;;;;12.52;38.70;100499.16;5090714;28;20096;-82
2022/03/21 11:09:42;;;;;;;19.67;10.35;;;;;;;12.71;38.58;100502.66;5084430;28;20061;-80
2022/03/21 11:12:10;;;;;;;20.02;9.88;;;;;;;12.75;38.34;100495.81;5070778;28;20131;-80
2022/03/21 11:14:39;;;;;;;22.65;10.32;;;;;;;12.62;38.73;100484.56;5073805;28;20045;-80
2022/03/21 11:17:07;;;;;;;21.08;9.38;;;;;;;12.97;39.96;100479.84;5085256;28;20329;-80
2022/03/21 11:19:35;;;;;;;20.73;10.57;;;;;;;12.91;37.48;100474.03;5067464;28;20048;-81
2022/03/21 11:22:02;;;;;;;20.98;9.88;;;;;;;12.91;36.70;100498.59;5058118;28;20048;-81
2022/03/21 11:24:29;;;;;;;21.23;9.48;;;;;;;12.90;36.96;100494.19;5067617;28;20119;-81
2022/03/21 11:27:14;;;;;;;18.60;9.45;;;;;;;13.16;37.11;100479.53;5070073;28;20570;-80
2022/03/21 11:29:48;;;;;;;19.65;8.60;;;;;;;13.48;38.54;100486.06;5066419;28;20476;-81
2022/03/21 11:32:27;;;;;;;17.83;9.15;;;;;;;13.49;36.49;100486.91;5050676;28;20476;-81
2022/03/21 11:35:03;;;;;;;19.98;9.55;;;;;;;13.48;36.14;100479.75;5050636;28;20049;-80
2022/03/21 11:37:31;;;;;;;17.42;9.23;;;;;;;13.57;35.48;100481.44;5061121;28;20275;-81
2022/03/21 11:40:28;;;;;;;21.90;9.20;;;;;;;13.68;37.10;100478.34;5070248;28;20044;-81
2022/03/21 11:43:25;;;;;;;16.00;10.43;;;;;;;13.65;35.99;100461.44;5056662;28;20072;-80
2022/03/21 11:45:55;;;;;;;19.20;9.80;;;;;;;13.74;36.30;100463.97;5071104;28;20076;-80
2022/03/21 11:48:38;;;;;;;21.23;8.63;;;;;;;13.98;36.48;100470.41;5070269;28;20498;-80
2022/03/21 11:51:35;;;;;;;13.75;8.50;;;;;;;14.27;37.12;100477.16;5070930;28;20385;-80
2022/03/21 11:54:01;;;;;;;16.08;9.63;;;;;;;14.30;34.87;100450.31;5076817;28;20055;-80
2022/03/21 11:57:05;;;;;;;14.55;9.10;;;;;;;14.67;34.94;100456.97;5078297;28;20082;-80
2022/03/21 11:59:49;;;;;;;19.13;10.13;;;;;;;14.67;34.53;100454.25;5050978;28;20048;-80
2022/03/21 12:02:56;;;;;;;17.13;8.50;;;;;;;14.91;34.88;100459.75;5067875;28;20052;-80
2022/03/21 12:05:53;;;;;;;18.27;9.52;;;;;;;14.89;34.36;100446.25;5051733;28;20057;-80
2022/03/21 12:08:51;;;;;;;17.25;9.30;;;;;;;15.01;34.14;100443.94;5081086;28;20094;-81
2022/03/21 12:11:59;;;;;;;29.95;9.40;;;;;;;14.74;34.93;100448.91;5070703;28;20067;-81
2022/03/21 12:14:41;;;;;;;17.73;9.43;;;;;;;14.77;34.27;100434.88;5069995;28;20388;-80
2022/03/21 12:17:39;;;;;;;16.20;9.60;;;;;;;15.07;34.82;100435.00;5068965;28;20127;-81
2022/03/21 12:20:08;;;;;;;16.38;10.25;;;;;;;15.14;33.60;100416.78;5050659;28;20498;-80
2022/03/21 12:22:47;;;;;;;13.97;9.10;;;;;;;15.57;35.07;100429.94;5086356;28;20105;-80
2022/03/21 12:25:16;;;;;;;19.15;9.23;;;;;;;15.44;33.59;100407.78;5051736;28;20307;-80
2022/03/21 12:27:44;;;;;;;17.30;9.93;;;;;;;15.29;34.22;100421.44;5070509;28;20052;-80
2022/03/21 12:30:37;;;;;;;17.83;9.50;;;;;;;15.78;34.30;100414.66;5070701;28;20040;-80
2022/03/21 12:33:22;;;;;;;17.17;9.82;;;;;;;16.03;32.87;100407.84;5067990;28;20109;-81
2022/03/21 12:36:05;;;;;;;18.40;9.35;;;;;;;16.09;33.19;100404.34;5079685;28;20396;-80
2022/03/21 12:38:40;;;;;;;18.70;10.23;;;;;;;15.88;32.85;100407.00;5079104;28;20048;-81
2022/03/21 12:41:09;;;;;;;21.73;9.63;;;;;;;15.68;33.06;100409.41;5070188;28;20048;-81
2022/03/21 12:43:46;;;;;;;15.32;8.95;;;;;;;15.55;32.82;100396.34;5065683;28;20053;-81
2022/03/21 12:46:14;;;;;;;16.80;9.55;;;;;;;15.88;32.67;100385.06;5072628;28;20036;-81
2022/03/21 12:48:43;;;;;;;18.80;9.48;;;;;;;16.16;33.13;100395.34;5064360;28;20124;-80
2022/03/21 12:51:13;;;;;;;18.70;9.35;;;;;;;15.99;33.18;100386.47;5050730;28;20049;-81
2022/03/21 12:53:42;;;;;;;19.50;10.35;;;;;;;16.24;32.88;100381.50;5056744;28;20076;-80
2022/03/21 12:56:10;;;;;;;20.38;9.98;;;;;;;16.39;33.16;100382.31;5070486;28;20041;-81
2022/03/21 12:58:41;;;;;;;17.58;10.65;;;;;;;15.99;32.26;100383.72;5068865;28;20476;-80
2022/03/21 13:01:08;;;;;;;18.15;10.07;;;;;;;15.91;32.54;100396.50;5070037;28;20041;-81
2022/03/21 13:03:34;;;;;;;16.58;10.02;;;;;;;16.08;33.07;100393.56;5070093;28;21070;-81
2022/03/21 13:11:34;;;;;;;18.38;10.48;;;;;;;15.99;32.76;100391.94;5072543;28;20064;-81
2022/03/21 13:14:03;;;;;;;18.27;10.80;;;;;;;16.01;32.51;100368.78;5072047;28;20056;-81
2022/03/21 13:16:35;;;;;;;18.67;10.23;;;;;;;16.24;32.72;100387.00;5073532;28;20051;-81
2022/03/21 13:19:01;;;;;;;19.38;9.88;;;;;;;16.02;33.16;100389.69;5072864;28;20052;-81
2022/03/21 13:21:35;;;;;;;17.83;9.75;;;;;;;16.04;32.94;100376.63;5073728;28;20045;-81
2022/03/21 13:24:02;;;;;;;20.60;10.35;;;;;;;16.10;33.31;100373.13;5072143;28;20052;-81
2022/03/21 13:26:29;;;;;;;15.25;9.60;;;;;;;16.25;33.01;100377.72;5072720;28;20484;-81
2022/03/21 13:29:08;;;;;;;16.83;10.32;;;;;;;16.29;33.28;100373.56;5076127;28;20055;-81
2022/03/21 13:31:35;;;;;;;17.83;9.68;;;;;;;16.20;33.28;100374.69;5073397;28;20057;-81
2022/03/21 13:34:04;;;;;;;19.30;10.88;;;;;;;15.96;33.60;100378.63;5071469;28;20053;-81
2022/03/21 13:36:41;;;;;;;21.33;10.55;;;;;;;15.84;34.04;100376.38;5073171;28;20131;-81
2022/03/21 13:39:12;;;;;;;21.98;10.68;;;;;;;16.07;32.80;100380.88;5073124;28;20051;-80
2022/03/21 13:41:53;;;;;;;19.20;9.05;;;;;;;15.61;33.91;100361.88;5073304;28;20048;-80
2022/03/21 13:44:20;;;;;;;18.65;9.48;;;;;;;15.49;33.92;100375.19;5068138;28;20056;-80
2022/03/21 13:47:06;;;;;;;20.45;9.80;;;;;;;15.88;33.34;100369.47;5070467;28;20143;-80
2022/03/21 13:49:46;;;;;;;22.30;10.93;;;;;;;15.89;33.26;100362.09;5066973;28;20047;-80
2022/03/21 13:52:15;;;;;;;18.23;10.00;;;;;;;15.97;34.02;100352.91;5072640;28;20131;-80
2022/03/21 13:54:52;;;;;;;13.85;8.50;;;;;;;15.93;33.15;100372.47;5057194;28;20139;-80
2022/03/21 13:57:19;;;;;;;20.55;9.85;;;;;;;15.79;32.53;100354.13;5054273;28;20072;-80
2022/03/21 13:59:59;;;;;;;19.92;9.93;;;;;;;16.01;32.54;100363.28;5068838;28;20045;-80
2022/03/21 14:02:25;;;;;;;;;;;;;;;16.35;31.97;100367.31;5072664;28;20470;-80
2022/03/21 14:04:53;;;;;;;20.40;8.20;;;;;;;16.35;30.80;100347.22;5067044;28;19920;-80
2022/03/21 14:07:31;;;;;;;16.75;9.65;;;;;;;16.58;30.13;100347.06;5072724;28;20515;-80
2022/03/21 14:09:58;;;;;;;20.48;9.07;;;;;;;16.55;30.70;100363.94;5072461;28;20147;-80
2022/03/21 14:12:29;;;;;;;22.02;9.45;;;;;;;16.65;30.68;100345.25;5076240;28;20089;-80
2022/03/21 14:14:55;;;;;;;17.25;10.43;;;;;;;16.77;31.97;100342.81;5057804;28;20048;-80
2022/03/21 14:17:22;;;;;;;16.67;9.93;;;;;;;16.67;32.20;100339.56;5072566;28;20048;-81
2022/03/21 14:19:49;;;;;;;18.85;10.98;;;;;;;16.68;31.13;100344.00;5070050;28;20063;-80
2022/03/21 14:22:15;;;;;;;17.55;10.30;;;;;;;16.32;32.22;100336.63;5072115;28;20118;-80
2022/03/21 14:24:43;;;;;;;19.05;10.60;;;;;;;16.51;32.99;100348.91;5060770;28;20114;-80
2022/03/21 14:27:10;;;;;;;14.90;9.25;;;;;;;16.26;32.81;100328.16;5062478;28;20044;-80
2022/03/21 14:29:36;;;;;;;21.42;8.98;;;;;;;16.37;32.80;100336.94;5067503;28;20040;-80
2022/03/21 14:32:04;;;;;;;18.58;9.65;;;;;;;16.34;32.19;100326.34;5074928;28;20040;-80
2022/03/21 14:34:31;;;;;;;16.52;8.85;;;;;;;16.62;31.98;100331.91;5069199;28;20052;-80
2022/03/21 14:36:58;;;;;;;15.57;9.35;;;;;;;16.45;32.45;100321.19;5072303;28;20053;-80
2022/03/21 14:39:25;;;;;;;17.00;9.93;;;;;;;16.44;32.72;100338.69;5062715;28;20055;-81
2022/03/21 14:41:53;;;;;;;21.45;10.27;;;;;;;16.38;32.89;100333.13;5059767;28;20043;-81
2022/03/21 14:44:22;;;;;;;22.77;10.73;;;;;;;16.49;31.81;100312.56;5070292;28;20500;-81
2022/03/21 14:46:49;;;;;;;17.50;8.97;;;;;;;16.26;32.85;100339.13;5052162;28;20041;-81
2022/03/21 14:49:15;;;;;;;19.75;9.68;;;;;;;16.12;32.52;100325.44;5065670;28;20127;-81
2022/03/21 14:51:42;;;;;;;18.75;10.00;;;;;;;16.16;32.76;100337.75;5071609;28;20431;-81
2022/03/21 14:54:09;;;;;;;18.80;8.95;;;;;;;16.06;33.35;100321.56;5070989;28;20041;-81
2022/03/21 14:56:35;;;;;;;21.88;9.57;;;;;;;15.96;32.45;100330.13;5071262;28;20408;-81
2022/03/21 14:59:03;;;;;;;16.92;8.63;;;;;;;15.82;31.80;100320.88;5068841;28;20051;-81
2022/03/21 15:01:30;;;;;;;16.92;8.82;;;;;;;15.92;31.68;100309.59;5067081;28;20048;-81
2022/03/21 15:03:56;;;;;;;13.98;8.00;;;;;;;16.02;30.97;100321.13;5069538;28;20059;-81
2022/03/21 15:06:23;;;;;;;19.80;9.38;;;;;;;15.83;32.23;100303.38;5069958;28;20051;-81
2022/03/21 15:08:49;;;;;;;23.95;9.02;;;;;;;15.80;32.09;100302.91;5071231;28;20056;-81
2022/03/21 15:11:16;;;;;;;18.00;7.80;;;;;;;15.96;32.07;100310.94;5067042;28;20072;-81
2022/03/21 15:13:44;;;;;;;13.25;7.50;;;;;;;16.06;32.11;100294.16;5074767;28;20340;-81
2022/03/21 15:16:16;;;;;;;15.60;8.32;;;;;;;16.06;31.67;100297.75;5071497;28;20611;-80
2022/03/21 15:18:43;;;;;;;18.33;7.88;;;;;;;16.05;31.21;100317.16;5071335;28;20466;-81
2022/03/21 15:21:13;;;;;;;14.10;8.02;;;;;;;15.94;31.35;100310.25;5069455;28;20040;-81
2022/03/21 15:23:40;;;;;;;13.45;7.68;;;;;;;15.92;31.01;100301.38;5063313;28;20135;-81
2022/03/21 15:26:07;;;;;;;15.80;7.63;;;;;;;15.87;31.15;100295.63;5070971;28;20498;-81
2022/03/21 15:28:34;;;;;;;15.52;7.32;;;;;;;15.98;31.04;100311.56;5070219;28;20060;-81
2022/03/21 15:31:02;;;;;;;16.08;7.32;;;;;;;15.88;31.55;100292.69;5073115;28;20438;-81
2022/03/21 15:33:30;;;;;;;11.85;6.80;;;;;;;16.02;31.20;100312.06;5065485;28;20044;-81
2022/03/21 15:41:39;;;;;;;16.75;7.75;;;;;;;15.99;31.74;100304.19;5065086;28;20063;-81
2022/03/21 15:44:16;;;;;;;14.68;7.45;;;;;;;16.35;32.40;100317.91;5060293;28;20105;-81
2022/03/21 15:46:42;;;;;;;12.80;6.95;;;;;;;16.43;30.83;100315.03;5070146;28;20431;-81
2022/03/21 15:49:11;;;;;;;22.02;6.25;;;;;;;16.02;30.25;100307.41;5057922;28;20240;-81
2022/03/21 15:51:37;;;;;;;18.27;6.60;;;;;;;15.80;30.46;100311.13;5066841;28;20471;-80
2022/03/21 15:54:04;;;;;;;16.63;7.57;;;;;;;15.80;30.60;100313.88;5065600;28;20389;-81
2022/03/21 15:56:31;;;;;;;18.15;6.95;;;;;;;15.62;30.75;100308.75;5066952;28;20053;-80
2022/03/21 15:59:00;;;;;;;12.20;5.82;;;;;;;15.61;31.41;100315.28;5061836;28;20052;-81
2022/03/21 16:01:26;;;;;;;10.40;5.47;;;;;;;15.40;31.58;100308.66;5072518;28;20383;-81
2022/03/21 16:03:53;;;;;;;9.95;6.15;;;;;;;15.46;31.58;100321.63;5066681;28;20110;-80
2022/03/21 16:06:21;;;;;;;12.52;6.72;;;;;;;15.43;32.79;100315.66;5067573;28;20048;-80
2022/03/21 16:08:47;;;;;;;13.93;6.25;;;;;;;15.17;32.85;100312.31;5060884;28;20102;-81
2022/03/21 16:11:15;;;;;;;12.48;6.35;;;;;;;15.10;32.17;100316.00;5056810;28;20052;-81
2022/03/21 16:13:42;;;;;;;12.02;6.43;;;;;;;14.89;31.70;100314.84;5055222;28;20048;-81
2022/03/21 16:16:09;;;;;;;14.45;6.75;;;;;;;14.75;33.17;100307.41;5072862;28;20052;-81
2022/03/21 16:18:36;;;;;;;11.38;6.25;;;;;;;14.63;33.71;100313.34;5055830;28;20551;-81
2022/03/21 16:21:03;;;;;;;16.00;6.88;;;;;;;14.54;34.57;100319.03;5055907;28;20165;-81
2022/03/21 16:23:31;;;;;;;15.15;6.47;;;;;;;14.40;32.84;100310.56;5047236;28;20059;-81
2022/03/21 16:25:58;;;;;;;15.57;6.97;;;;;;;14.35;32.14;100318.47;5060119;28;20083;-81
2022/03/21 16:28:25;;;;;;;12.68;7.47;;;;;;;14.27;32.68;100322.13;5066055;28;20405;-81
2022/03/21 16:30:54;;;;;;;12.98;6.28;;;;;;;14.14;33.12;100310.91;5067256;28;20048;-81
2022/03/21 16:33:22;;;;;;;13.53;6.73;;;;;;;14.09;33.66;100306.00;5059513;28;20404;-81
2022/03/21 16:35:48;;;;;;;10.85;6.82;;;;;;;14.05;33.46;100312.84;5068435;28;20059;-81
2022/03/21 16:38:15;;;;;;;15.38;7.03;;;;;;;13.89;33.79;100310.19;5065953;28;20087;-81
2022/03/21 16:40:43;;;;;;;18.48;7.10;;;;;;;13.91;33.40;100310.84;5048344;28;20057;-81
2022/03/21 16:43:10;;;;;;;13.70;7.32;;;;;;;13.69;34.37;100318.81;5058850;28;20082;-81
2022/03/21 16:45:40;;;;;;;15.52;6.75;;;;;;;13.69;33.68;100324.28;5076012;28;20055;-81
2022/03/21 16:48:06;;;;;;;;;;;;;;;13.72;33.92;100325.81;5064693;28;20451;-81
2022/03/21 16:50:33;;;;;;;16.67;7.35;;;;;;;13.60;34.60;100326.19;5059845;28;20015;-81
2022/03/21 16:53:00;;;;;;;10.82;6.93;;;;;;;13.50;35.52;100341.09;5053052;28;20049;-81
2022/03/21 16:55:26;;;;;;;18.63;7.05;;;;;;;13.34;35.46;100328.31;5071964;28;20080;-81
2022/03/21 16:57:55;;;;;;;14.88;7.45;;;;;;;13.20;35.42;100318.94;5071428;28;20068;-81
2022/03/21 17:00:22;;;;;;;13.77;7.50;;;;;;;13.24;35.81;100336.69;5076248;28;20070;-81
2022/03/21 17:02:48;;;;;;;19.92;7.18;;;;;;;13.10;35.90;100338.25;5070054;28;20126;-81
2022/03/21 17:05:16;;;;;;;23.65;7.57;;;;;;;12.90;37.05;100335.00;5059736;28;20063;-81
2022/03/21 17:07:45;;;;;;;11.52;6.60;;;;;;;12.81;38.19;100333.31;5057548;28;20083;-81
2022/03/21 17:10:12;;;;;;;10.55;6.43;;;;;;;12.64;41.13;100340.66;5074893;28;20040;-82
2022/03/21 17:12:39;;;;;;;12.07;6.63;;;;;;;12.40;38.79;100323.22;5069816;28;20076;-82
2022/03/21 17:15:08;;;;;;;15.00;7.35;;;;;;;12.19;38.75;100327.31;5070804;28;20087;-81
2022/03/21 17:17:35;;;;;;;13.98;6.78;;;;;;;12.23;39.19;100348.78;5069588;28;20485;-82
2022/03/21 17:25:31;;;;;;;13.55;7.03;;;;;;;11.59;41.27;100320.09;5072268;28;20514;-81
2022/03/21 17:28:00;;;;;;;15.32;6.80;;;;;;;11.49;41.52;100338.41;5070950;28;20127;-81
2022/03/21 17:30:30;;;;;;;14.82;6.55;;;;;;;11.30;42.30;100336.75;5070247;28;20044;-82
2022/03/21 17:32:57;;;;;;;13.00;7.20;;;;;;;11.14;42.61;100340.22;5069695;28;20048;-82
2022/03/21 17:35:24;;;;;;;12.10;6.57;;;;;;;11.01;42.76;100339.81;5069134;28;20052;-82
2022/03/21 17:37:52;;;;;;;14.40;6.28;;;;;;;10.85;43.40;100327.78;5074566;28;20138;-81
2022/03/21 17:40:20;;;;;;;12.10;6.88;;;;;;;10.66;44.93;100338.84;5072755;28;20040;-82
2022/03/21 17:42:46;;;;;;;13.13;7.18;;;;;;;10.50;44.34;100337.69;5058812;28;20090;-81
2022/03/21 17:45:15;;;;;;;17.10;7.70;;;;;;;10.43;43.77;100347.47;5070786;28;20049;-81
2022/03/21 17:47:43;;;;;;;18.45;7.45;;;;;;;10.39;44.34;100352.38;5070353;28;20048;-81
2022/03/21 17:50:10;;;;;;;11.38;6.30;;;;;;;10.34;44.08;100362.00;5067265;28;20052;-81
2022/03/21 17:52:37;;;;;;;15.65;7.13;;;;;;;10.06;44.88;100335.69;5069233;28;20052;-81
2022/03/21 17:55:06;;;;;;;11.27;6.53;;;;;;;10.15;44.51;100354.81;5067973;28;20052;-82
2022/03/21 17:57:32;;;;;;;13.63;5.65;;;;;;;9.96;45.22;100359.34;5067770;28;20131;-81
2022/03/21 17:59:59;;;;;;;12.75;6.53;;;;;;;9.72;46.68;100339.00;5067936;28;20510;-81
2022/03/21 18:02:29;;;;;;;12.32;7.03;;;;;;;9.69;46.53;100373.78;5063850;28;20744;-81
2022/03/21 18:04:59;;;;;;;14.13;6.47;;;;;;;9.52;46.35;100349.13;5069593;28;20040;-81
2022/03/21 18:07:26;;;;;;;11.02;6.75;;;;;;;9.45;47.45;100368.88;5065557;28;20068;-81
2022/03/21 18:09:52;;;;;;;14.40;6.93;;;;;;;9.30;46.50;100346.78;5069505;28;20048;-81
2022/03/21 18:12:19;;;;;;;11.50;6.32;;;;;;;9.22;47.15;100350.22;5069610;28;20052;-81
2022/03/21 18:14:47;;;;;;;10.32;6.50;;;;;;;9.23;47.37;100378.22;5069874;28;20056;-81
2022/03/21 18:17:17;;;;;;;12.10;6.75;;;;;;;9.19;47.33;100370.38;5069122;28;20131;-81
2022/03/21 18:19:46;;;;;;;13.32;6.55;;;;;;;8.98;47.64;100358.84;5069142;28;20171;-81
2022/03/21 18:22:14;;;;;;;19.05;7.75;;;;;;;8.92;46.95;100357.56;5060171;28;20051;-81
2022/03/21 18:24:47;;;;;;;17.45;6.68;;;;;;;8.96;48.79;100375.28;5066624;28;20044;-81
2022/03/21 18:27:15;;;;;;;11.35;5.88;;;;;;;8.88;48.34;100368.84;5076539;28;20076;-81
2022/03/21 18:29:42;;;;;;;13.63;6.93;;;;;;;8.74;48.80;100378.28;5072197;28;20071;-81
2022/03/21 18:32:10;;;;;;;12.32;7.78;;;;;;;8.84;48.54;100365.59;5067703;28;20090;-81
2022/03/21 18:34:36;;;;;;;13.52;6.68;;;;;;;8.85;48.95;100383.53;5067561;28;20060;-81
2022/03/21 18:37:04;;;;;;;22.25;7.70;;;;;;;8.61;49.64;100376.72;5068433;28;20044;-81
2022/03/21 18:39:32;;;;;;;12.63;7.03;;;;;;;8.56;49.74;100389.84;5069823;28;20045;-81
2022/03/21 18:41:59;;;;;;;12.23;6.47;;;;;;;8.60;50.14;100390.44;5077514;28;20049;-81
2022/03/21 18:44:33;;;;;;;13.85;6.28;;;;;;;8.51;50.52;100389.41;5058598;28;20055;-81
2022/03/21 18:46:59;;;;;;;11.70;6.60;;;;;;;8.31;50.69;100370.41;5069212;28;20055;-81
2022/03/21 18:49:26;;;;;;;13.68;7.75;;;;;;;8.29;50.50;100393.19;5069118;28;20040;-81
2022/03/21 18:51:53;;;;;;;14.73;7.28;;;;;;;8.17;50.83;100397.03;5071913;28;20071;-82
2022/03/21 18:54:19;;;;;;;12.75;6.90;;;;;;;7.97;51.39;100394.28;5074339;28;20087;-81
2022/03/21 18:56:47;;;;;;;13.20;7.60;;;;;;;7.92;51.99;100391.13;5070139;28;20135;-81
2022/03/21 18:59:14;;;;;;;11.70;6.45;;;;;;;7.89;51.94;100404.91;5069412;28;20056;-81
2022/03/21 19:01:40;;;;;;;15.88;7.55;;;;;;;7.77;52.43;100407.75;5050413;28;20049;-81
2022/03/21 19:04:07;;;;;;;14.40;7.97;;;;;;;7.67;52.38;100396.00;5057360;28;20040;-81
2022/03/21 19:06:34;;;;;;;13.25;7.90;;;;;;;7.64;52.39;100401.69;5063303;28;20048;-81
2022/03/21 19:09:00;;;;;;;15.80;6.60;;;;;;;7.59;53.14;100394.00;5071061;28;20135;-81
2022/03/21 19:11:27;;;;;;;11.77;6.90;;;;;;;7.51;52.10;100407.34;5065939;28;20492;-81
2022/03/21 19:13:55;;;;;;;19.23;6.95;;;;;;;7.43;53.49;100413.41;5068955;28;20400;-81
2022/03/21 19:16:21;;;;;;;12.73;6.47;;;;;;;7.32;54.02;100416.22;5053150;28;20051;-81
2022/03/21 19:18:48;;;;;;;13.15;6.60;;;;;;;7.44;53.32;100425.09;5049448;28;20060;-82
2022/03/21 19:21:14;;;;;;;14.48;7.07;;;;;;;7.30;53.67;100417.31;5059468;28;20892;-81
2022/03/21 19:23:41;;;;;;;13.57;8.25;;;;;;;7.17;53.93;100409.44;5072995;28;20040;-81
2022/03/21 19:26:09;;;;;;;16.20;7.85;;;;;;;7.07;54.06;100421.00;5069252;28;20059;-80
2022/03/21 19:28:36;;;;;;;12.60;6.82;;;;;;;6.94;54.11;100412.25;5069081;28;20045;-82
2022/03/21 19:31:04;;;;;;;14.10;6.32;;;;;;;7.01;52.94;100415.28;5065938;28;20048;-81
2022/03/21 19:33:31;;;;;;;14.05;6.63;;;;;;;6.94;52.00;100401.44;5068459;28;20052;-82
2022/03/21 19:35:58;;;;;;;15.35;6.65;;;;;;;6.97;52.07;100420.09;5069561;28;20105;-82
2022/03/21 19:38:26;;;;;;;11.50;6.15;;;;;;;6.79;52.37;100400.03;5070541;28;20049;-81
2022/03/21 19:40:55;;;;;;;18.90;6.97;;;;;;;6.79;53.48;100410.84;5057792;28;20492;-82
2022/03/21 19:43:23;;;;;;;12.63;6.22;;;;;;;6.86;53.97;100421.00;5075820;28;20052;-82
2022/03/21 19:45:51;;;;;;;15.25;6.38;;;;;;;6.79;53.81;100421.66;5076376;28;20066;-81
2022/03/21 19:48:19;;;;;;;14.98;5.68;;;;;;;6.66;52.74;100413.75;5067323;28;20074;-81
2022/03/21 19:50:47;;;;;;;10.48;6.07;;;;;;;6.70;52.28;100417.91;5058642;28;20064;-81
2022/03/21 19:53:13;;;;;;;11.30;5.70;;;;;;;6.72;50.17;100424.03;5054366;28;20036;-81
2022/03/21 19:55:41;;;;;;;14.02;5.93;;;;;;;6.68;49.41;100414.44;5078699;28;20049;-81
2022/03/21 19:58:08;;;;;;;12.82;5.38;;;;;;;6.57;48.39;100404.56;5069267;28;20063;-81
2022/03/21 20:00:35;;;;;;;14.80;5.88;;;;;;;6.63;47.61;100403.19;5061686;28;20419;-81
2022/03/21 20:03:02;;;;;;;14.50;5.78;;;;;;;6.72;46.60;100414.06;5062984;28;20047;-81
2022/03/21 20:05:31;;;;;;;16.48;6.00;;;;;;;6.70;45.78;100405.25;5061175;28;20041;-81
2022/03/21 20:07:58;;;;;;;9.65;5.60;;;;;;;6.61;46.63;100397.91;5052742;28;20053;-81
2022/03/21 20:10:26;;;;;;;12.57;7.10;;;;;;;6.67;47.40;100423.53;5077485;28;20429;-81
2022/03/21 20:12:53;;;;;;;12.70;6.63;;;;;;;6.54;47.14;100416.47;5068092;28;20048;-81